Omaha, NE (68175)

11:03 PM CDT on August 22, 2014 (GMT -0500)
Midtown (42nd and Center) | Change Station
CLOSE
Current Station
Personal Weather Station
Location: Omaha, NE
Elevation: 1220 ft
Nearby Weather Stations

Elev 1220 ft 41.24 °N, 95.97 °W | Updated 2 seconds ago

Mostly Cloudy
Mostly Cloudy
74.5 °F
Feels Like 72 °F
N
1.0
Wind Variable Wind from NW
Gusts 2.0 mph

Today
High -- | Low -- °F
--% Chance of Precip.
Yesterday
High -- | Low -- °F
Precip. -- in
6:40 AM 8:12 PM
Waning Crescent, 5% visible
Pressure 29.91 in
Visibility 6.0 miles
Clouds Few 1000 ft
Mostly Cloudy 25000 ft
Heat Index 72 °F
Dew Point 74 °F
Humidity 97%
Rainfall 0.85 in
Snow Depth Not available.
UV 0.0 out of 12
Pollen 8.70 out of 12
Ozone Good
PM2.5 Moderate
Flu Activity Not available.
METAR KOMA 230352Z 01006KT 6SM BR FEW010 BKN250 24/23 A2994 RMK AO2 SLP127 T02440228 $

More Conditions Fewer Conditions

Pressure 29.91 in
Visibility 6.0 miles
Clouds Few 1000 ft
Mostly Cloudy 25000 ft
Heat Index 72 °F
Dew Point 74 °F
Humidity 97%
Rainfall 0.85 in
Snow Depth Not available.
UV 0.0 out of 12
Pollen 8.70 out of 12
Ozone Good
PM2.5 Moderate
Flu Activity Not available.
METAR KOMA 230352Z 01006KT 6SM BR FEW010 BKN250 24/23 A2994 RMK AO2 SLP127 T02440228 $

More Conditions Fewer Conditions

10-Day Weather Forecast

Almanac

Astronomy

Aug. 22, 2014 Rise Set
Actual Time 6:40 AM CDT 8:12 PM CDT
Civil Twilight 6:11 AM CDT 8:41 PM CDT
Nautical Twilight 5:36 AM CDT 9:16 PM CDT
Astronomical Twilight 4:58 AM CDT 9:53 PM CDT
Moon 4:03 AM CDT (8/22) 6:22 PM CDT (8/22)
Length of Visible Light 14h 30m
Length of Day
13h 32m
Tomorrow will be 2m 33s shorter.
Waning Crescent, 5% of the Moon is Illuminated
Aug 23
Waning Crescent
Aug 25
New
Sep 2
First Quarter
Sep 8
Full
Sep 15
Last Quarter

Today's Extremes

State Highs State Lows

Community

WunderPhotos

Upload Photos

1,746,351 photos uploaded!

WunderBlogs® & News

Nearby

Air Quality

  Air Quality AQ Index Pollutant
Yesterday Moderate
PM2.5
Yesterday Good
OZONE
Current Moderate
PM2.5
Current Good
OZONE
Friday Moderate
OZONE
Friday Good
PM2.5
Friday Good
CO
Saturday Good
PM2.5
Saturday Good
OZONE
Saturday Good
CO
Sunday Moderate
OZONE
Sunday Good
PM2.5
Sunday Good
CO

Snow Depth

Station Depth Elevation
No new snow has been reported.

Earthquake Activity

City Distance Mag. Time & Date
No recent earthquake activity has been reported nearby.
Minimum magnitude displayed is 2.5.

Coastal Water Temperatures

Place Temperature
No Stations Reporting

Nearby Weather Stations